Time;durP1;ratioP1;P1;durP2;ratioP2;P2;SDS_P1;SDS_P2;PMS_P1;PMS_P2;Temp;Humidity;BMP_temperature;BMP_pressure;BME280_temperature;BME280_humidity;BME280_pressure;Samples;Min_cycle;Max_cycle;Signal;HPM_P1;HPM_P2
2022/05/01 00:01:25;;;;;;;12.55;7.45;;;;;;;9.62;75.21;102173.47;5111895;28;20047;-75
2022/05/01 00:03:51;;;;;;;18.25;8.48;;;;;;;9.57;75.42;102173.03;5076626;27;20065;-75
2022/05/01 00:06:16;;;;;;;14.05;8.02;;;;;;;9.53;75.00;102172.44;5072966;28;20043;-75
2022/05/01 00:08:42;;;;;;;14.90;8.38;;;;;;;9.61;74.05;102165.84;5067873;28;20031;-75
2022/05/01 00:11:09;;;;;;;15.30;8.55;;;;;;;9.49;74.95;102165.84;5089551;27;20082;-75
2022/05/01 00:13:35;;;;;;;14.50;8.60;;;;;;;9.48;74.93;102158.19;5108364;27;20049;-75
2022/05/01 00:16:00;;;;;;;19.35;9.00;;;;;;;9.45;73.85;102163.56;5093398;28;20046;-75
2022/05/01 00:18:26;;;;;;;17.67;9.30;;;;;;;9.42;73.65;102145.66;5092912;28;20101;-76
2022/05/01 00:20:52;;;;;;;18.10;9.07;;;;;;;9.39;73.61;102154.50;5079961;28;20489;-75
2022/05/01 00:23:19;;;;;;;15.48;8.88;;;;;;;9.38;74.12;102152.88;5088084;28;20031;-75
2022/05/01 00:25:45;;;;;;;15.45;9.32;;;;;;;9.37;74.13;102152.97;5066521;28;20065;-75
2022/05/01 00:28:12;;;;;;;18.60;8.45;;;;;;;9.39;74.16;102145.91;5095004;27;20035;-75
2022/05/01 00:30:38;;;;;;;14.43;8.45;;;;;;;9.39;74.70;102149.31;5117994;27;20528;-76
2022/05/01 00:38:33;;;;;;;13.95;8.15;;;;;;;9.39;76.32;102151.91;5098651;27;20426;-75
2022/05/01 00:40:58;;;;;;;14.38;7.70;;;;;;;9.38;76.13;102155.47;5088181;28;20028;-76
2022/05/01 00:43:24;;;;;;;13.80;9.10;;;;;;;9.37;75.94;102151.22;5103040;27;20043;-75
2022/05/01 00:45:49;;;;;;;17.98;9.43;;;;;;;9.35;75.89;102150.50;5077569;27;20364;-75
2022/05/01 00:48:15;;;;;;;14.38;8.63;;;;;;;9.36;76.13;102149.53;5094295;28;20032;-77
2022/05/01 00:50:44;;;;;;;20.02;9.35;;;;;;;9.19;75.94;102143.03;5089409;28;20024;-75
2022/05/01 00:53:10;;;;;;;18.05;10.20;;;;;;;9.18;76.05;102141.41;5090365;28;20034;-75
2022/05/01 00:55:37;;;;;;;16.00;10.18;;;;;;;9.18;75.87;102133.63;5089098;27;20027;-75
2022/05/01 00:58:05;;;;;;;14.57;9.85;;;;;;;9.11;76.02;102141.03;5080994;28;20027;-74
2022/05/01 01:00:31;;;;;;;15.45;8.90;;;;;;;9.13;76.42;102133.16;5065853;28;20028;-75
2022/05/01 01:02:57;;;;;;;17.38;9.32;;;;;;;9.13;76.69;102140.91;5069631;28;20026;-75
2022/05/01 01:05:23;;;;;;;18.52;9.57;;;;;;;9.21;76.37;102140.34;5107128;27;20425;-75
2022/05/01 01:07:48;;;;;;;17.08;9.10;;;;;;;9.26;76.63;102133.06;5117214;27;20039;-75
2022/05/01 01:10:14;;;;;;;16.88;9.82;;;;;;;9.21;76.89;102136.00;5088227;27;20031;-75
2022/05/01 01:12:54;;;;;;;16.52;9.77;;;;;;;9.22;77.14;102142.81;5094734;28;20472;-75
2022/05/01 01:15:28;;;;;;;14.38;9.30;;;;;;;9.19;77.56;102139.63;5106792;27;20088;-75
2022/05/01 01:17:54;;;;;;;14.15;9.32;;;;;;;9.15;77.54;102147.66;5107244;27;20023;-75
2022/05/01 01:20:27;;;;;;;18.00;9.15;;;;;;;9.14;77.74;102158.09;5079571;28;20046;-75
2022/05/01 01:22:55;;;;;;;19.75;11.25;;;;;;;9.10;77.22;102146.34;5105409;27;20035;-75
2022/05/01 01:25:22;;;;;;;17.58;10.35;;;;;;;9.06;77.39;102148.31;5069829;28;20450;-75
2022/05/01 01:27:52;;;;;;;14.80;10.38;;;;;;;9.09;77.08;102155.03;5079265;27;20036;-76
2022/05/01 01:33:03;;;;;;;18.08;10.63;;;;;;;9.10;77.61;102157.50;5106371;27;20126;-75
2022/05/01 01:35:29;;;;;;;18.92;11.25;;;;;;;9.11;78.02;102155.72;5105019;27;20031;-75
2022/05/01 01:37:55;;;;;;;22.35;11.10;;;;;;;9.12;78.46;102170.34;5104185;27;20023;-75
2022/05/01 01:40:22;;;;;;;19.77;11.25;;;;;;;9.06;78.50;102161.25;5105336;27;20407;-75
2022/05/01 01:42:50;;;;;;;16.92;10.30;;;;;;;9.04;78.43;102157.13;5091346;27;20043;-75
2022/05/01 01:45:16;;;;;;;21.55;11.55;;;;;;;8.93;78.78;102160.50;5087745;28;20032;-75
2022/05/01 01:47:43;;;;;;;25.67;11.50;;;;;;;8.91;79.04;102155.44;5104642;28;20039;-75
2022/05/01 01:50:11;;;;;;;16.25;10.18;;;;;;;8.88;79.13;102152.25;5086922;28;20035;-75
2022/05/01 01:52:37;;;;;;;17.75;11.25;;;;;;;8.87;79.11;102148.84;5086712;28;20023;-75
2022/05/01 01:55:02;;;;;;;22.23;11.32;;;;;;;9.01;78.67;102150.41;5105009;27;20036;-75
2022/05/01 01:57:28;;;;;;;21.00;11.85;;;;;;;8.95;78.24;102156.03;5085397;28;20039;-76
2022/05/01 01:59:54;;;;;;;20.67;11.20;;;;;;;8.89;79.14;102156.47;5086942;28;20110;-75
2022/05/01 02:02:20;;;;;;;20.08;10.95;;;;;;;8.84;79.84;102150.84;5086135;28;20383;-76
2022/05/01 02:04:45;;;;;;;21.33;11.45;;;;;;;8.81;80.43;102153.63;5084826;28;20309;-76
2022/05/01 02:07:11;;;;;;;16.42;10.57;;;;;;;8.80;80.51;102151.97;5107951;27;20469;-75
2022/05/01 02:09:37;;;;;;;18.83;11.07;;;;;;;8.80;80.96;102142.47;5101737;27;20024;-75
2022/05/01 02:12:08;;;;;;;18.02;10.13;;;;;;;8.83;80.58;102149.16;5103467;27;20035;-75
2022/05/01 02:14:34;;;;;;;18.42;11.18;;;;;;;8.87;79.97;102145.41;5065022;28;20026;-75
2022/05/01 02:17:02;;;;;;;19.17;11.20;;;;;;;8.88;79.80;102139.31;5103958;27;20499;-75
2022/05/01 02:19:28;;;;;;;16.42;10.48;;;;;;;8.86;79.77;102136.03;5103412;27;20027;-75
2022/05/01 02:21:54;;;;;;;17.70;11.20;;;;;;;8.84;79.78;102140.47;5103127;27;20097;-75
2022/05/01 02:24:19;;;;;;;21.13;11.65;;;;;;;8.80;79.90;102139.88;5089951;28;20625;-75
2022/05/01 02:26:46;;;;;;;21.40;11.40;;;;;;;8.75;80.34;102141.97;5107571;27;20054;-75
2022/05/01 02:29:12;;;;;;;21.02;11.70;;;;;;;8.70;80.70;102136.28;5101325;28;20047;-75
2022/05/01 02:31:42;;;;;;;16.38;10.63;;;;;;;8.68;81.38;102135.59;5086456;28;20032;-75
2022/05/01 02:34:09;;;;;;;18.67;10.80;;;;;;;8.67;81.39;102134.75;5087836;28;20407;-75
2022/05/01 02:36:35;;;;;;;18.85;10.38;;;;;;;8.70;81.18;102131.97;5103061;28;20110;-75
2022/05/01 02:39:01;;;;;;;17.05;11.15;;;;;;;8.71;80.86;102136.19;5087221;28;20114;-75
2022/05/01 02:41:28;;;;;;;19.42;11.93;;;;;;;8.73;80.64;102134.31;5082987;28;20089;-75
2022/05/01 02:43:56;;;;;;;22.23;11.10;;;;;;;8.74;81.03;102137.75;5096146;27;20479;-75
2022/05/01 02:46:22;;;;;;;24.35;11.18;;;;;;;8.75;80.82;102131.63;5103811;28;20032;-75
2022/05/01 02:48:47;;;;;;;20.00;11.98;;;;;;;8.76;80.53;102126.34;5084326;28;20036;-75
2022/05/01 02:51:13;;;;;;;19.40;10.35;;;;;;;8.75;80.41;102132.44;5067706;28;20034;-75
2022/05/01 02:53:38;;;;;;;20.10;11.63;;;;;;;8.74;80.81;102130.81;5121583;27;20507;-75
2022/05/01 02:56:04;;;;;;;24.30;12.82;;;;;;;8.70;81.55;102129.38;5103957;28;20062;-75
2022/05/01 02:58:30;;;;;;;17.00;11.50;;;;;;;8.66;82.54;102119.34;5088975;28;20053;-75
2022/05/01 03:00:56;;;;;;;15.63;10.60;;;;;;;8.58;83.20;102125.09;5093467;28;20040;-75
2022/05/01 03:03:24;;;;;;;22.63;11.50;;;;;;;8.55;83.26;102118.38;5107396;28;20122;-75
2022/05/01 03:05:51;;;;;;;20.33;11.82;;;;;;;8.54;83.18;102118.50;5101636;28;20039;-75
2022/05/01 03:08:17;;;;;;;20.50;11.90;;;;;;;8.51;82.91;102114.38;5085199;28;20035;-76
2022/05/01 03:10:43;;;;;;;18.15;11.75;;;;;;;8.48;83.10;102113.78;5083669;28;20042;-75
2022/05/01 03:13:08;;;;;;;24.25;12.50;;;;;;;8.47;82.97;102112.91;5104190;28;20038;-75
2022/05/01 03:15:34;;;;;;;19.40;12.02;;;;;;;8.47;82.60;102110.34;5055889;28;20597;-75
2022/05/01 03:23:28;;;;;;;21.88;12.25;;;;;;;8.50;81.74;102104.97;5097454;28;20124;-75
2022/05/01 03:25:53;;;;;;;21.10;11.93;;;;;;;8.49;81.53;102102.47;5069696;28;21293;-75
2022/05/01 03:28:19;;;;;;;20.63;12.30;;;;;;;8.50;81.57;102101.56;5086713;28;20047;-75
2022/05/01 03:30:44;;;;;;;19.40;11.00;;;;;;;8.49;81.37;102105.06;5081390;28;20019;-75
2022/05/01 03:33:10;;;;;;;16.60;10.98;;;;;;;8.48;81.30;102103.44;5098732;28;20489;-75
2022/05/01 03:35:36;;;;;;;15.73;10.80;;;;;;;8.45;81.70;102107.03;5095129;28;20680;-75
2022/05/01 03:38:06;;;;;;;20.20;11.60;;;;;;;8.43;81.78;102103.75;5099781;28;20055;-75
2022/05/01 03:40:35;;;;;;;21.40;11.43;;;;;;;8.37;82.14;102102.38;5086605;28;20611;-75
2022/05/01 03:43:02;;;;;;;23.42;13.05;;;;;;;8.33;82.47;102100.16;5086364;28;20531;-75
2022/05/01 03:45:28;;;;;;;21.55;12.73;;;;;;;8.30;82.76;102101.16;5100069;28;20039;-75
2022/05/01 03:47:54;;;;;;;20.23;12.52;;;;;;;8.29;82.59;102109.06;5102950;28;20690;-75
2022/05/01 03:50:20;;;;;;;22.42;12.88;;;;;;;8.27;82.67;102103.16;5069106;28;20024;-75
2022/05/01 03:52:48;;;;;;;19.92;12.32;;;;;;;8.21;82.64;102101.81;5100882;28;20093;-75
2022/05/01 03:55:14;;;;;;;18.55;12.07;;;;;;;8.20;83.07;102105.34;5084701;27;20051;-75
2022/05/01 03:57:40;;;;;;;18.40;11.05;;;;;;;8.21;83.12;102106.16;5105884;27;20030;-76
2022/05/01 04:00:10;;;;;;;19.02;11.77;;;;;;;8.18;83.17;102100.28;5105569;27;20392;-75
2022/05/01 04:02:45;;;;;;;19.40;11.88;;;;;;;8.13;83.53;102099.78;5083745;28;20039;-75
2022/05/01 04:05:12;;;;;;;18.55;12.18;;;;;;;8.13;84.04;102106.72;5090299;27;20114;-75
2022/05/01 04:07:38;;;;;;;23.45;12.75;;;;;;;8.10;83.87;102097.44;5073327;28;20517;-75
2022/05/01 04:10:05;;;;;;;25.02;12.32;;;;;;;8.09;84.15;102105.28;5075273;27;20032;-75
2022/05/01 04:12:38;;;;;;;19.63;11.07;;;;;;;8.07;84.19;102105.38;5101756;27;20028;-75
2022/05/01 04:15:07;;;;;;;23.58;13.40;;;;;;;8.08;84.54;102108.78;5099432;27;20123;-75
2022/05/01 04:17:40;;;;;;;21.10;11.63;;;;;;;8.08;84.35;102101.03;5088983;28;20065;-75
2022/05/01 04:20:06;;;;;;;;;;;;;;;8.05;84.64;102099.50;5103400;27;20112;-75
2022/05/01 04:22:42;;;;;;;24.63;12.35;;;;;;;8.02;84.76;102106.63;5091124;28;19911;-75
2022/05/01 04:25:17;;;;;;;24.10;13.70;;;;;;;7.98;85.40;102100.88;5102057;27;20036;-75
2022/05/01 04:27:48;;;;;;;20.88;13.30;;;;;;;7.95;85.52;102108.84;5085886;27;20039;-75
2022/05/01 04:30:15;;;;;;;21.35;13.60;;;;;;;7.93;85.82;102108.09;5121035;27;20411;-75
2022/05/01 04:32:58;;;;;;;21.38;13.30;;;;;;;7.95;85.84;102107.09;5088085;27;20051;-75
2022/05/01 04:35:26;;;;;;;;;;;;;;;7.97;85.89;102104.41;5104502;27;20403;-75
2022/05/01 04:37:53;;;;;;;26.05;13.50;;;;;;;7.99;85.90;102107.69;5089121;27;19916;-75
2022/05/01 04:40:19;;;;;;;20.98;12.30;;;;;;;8.01;85.53;102111.00;5091969;28;20409;-75
2022/05/01 04:42:45;;;;;;;21.27;13.68;;;;;;;8.03;85.43;102106.53;5088447;27;20078;-75
2022/05/01 04:45:11;;;;;;;20.88;13.13;;;;;;;8.03;85.51;102111.72;5089075;28;20031;-75
2022/05/01 04:47:38;;;;;;;21.55;13.30;;;;;;;8.05;85.35;102116.78;5085629;27;20059;-76
2022/05/01 04:50:04;;;;;;;22.95;13.73;;;;;;;8.06;85.57;102108.06;5079501;28;20376;-75
2022/05/01 04:52:29;;;;;;;27.50;14.30;;;;;;;8.01;85.68;102110.19;5086149;28;20484;-75
2022/05/01 04:54:55;;;;;;;22.80;13.40;;;;;;;7.99;86.18;102116.25;5098350;27;20047;-75
2022/05/01 04:57:21;;;;;;;23.45;14.25;;;;;;;7.99;86.50;102108.50;5095449;27;20123;-75
2022/05/01 04:59:48;;;;;;;27.23;14.13;;;;;;;8.00;86.91;102109.31;5100303;27;20026;-75
2022/05/01 05:02:14;;;;;;;22.15;14.18;;;;;;;8.01;86.97;102111.00;5099128;28;20065;-75
2022/05/01 05:04:40;;;;;;;25.08;14.48;;;;;;;8.01;86.85;102107.59;5103249;27;20419;-75
2022/05/01 05:07:06;;;;;;;24.17;13.80;;;;;;;8.03;86.38;102108.31;5083536;28;20118;-76
2022/05/01 05:12:15;;;;;;;29.25;14.07;;;;;;;8.14;85.73;102111.78;5103183;28;20035;-75
2022/05/01 05:14:41;;;;;;;22.30;13.40;;;;;;;8.21;85.04;102124.25;5090475;28;20042;-75
2022/05/01 05:17:07;;;;;;;24.65;15.40;;;;;;;8.26;85.05;102115.25;5122563;27;20039;-75
2022/05/01 05:19:35;;;;;;;24.40;14.38;;;;;;;8.32;85.69;102119.97;5101335;27;20028;-75
2022/05/01 05:22:00;;;;;;;23.50;14.18;;;;;;;8.29;86.28;102120.22;5087048;28;20555;-75
2022/05/01 05:24:26;;;;;;;25.15;14.10;;;;;;;8.34;86.54;102122.47;5070624;27;20042;-75
2022/05/01 05:26:51;;;;;;;28.20;15.10;;;;;;;8.32;86.64;102121.75;5082914;28;20039;-75
2022/05/01 05:29:16;;;;;;;26.10;15.40;;;;;;;8.32;86.50;102125.13;5097657;27;20031;-76
2022/05/01 05:31:42;;;;;;;24.65;15.05;;;;;;;8.33;85.83;102124.22;5099882;27;20038;-75
2022/05/01 05:34:08;;;;;;;26.17;14.68;;;;;;;8.38;85.72;102131.63;5089325;27;20031;-75
2022/05/01 05:36:33;;;;;;;28.15;14.93;;;;;;;8.45;85.31;102121.72;5119206;27;20076;-75
2022/05/01 05:38:59;;;;;;;25.55;15.30;;;;;;;8.53;84.62;102125.44;5073440;28;20052;-75
2022/05/01 05:41:24;;;;;;;25.20;14.63;;;;;;;8.57;85.00;102131.22;5101371;27;20044;-75
2022/05/01 05:43:49;;;;;;;26.15;15.02;;;;;;;8.63;85.06;102123.00;5105219;27;20046;-75
2022/05/01 05:46:15;;;;;;;25.67;14.40;;;;;;;8.71;85.58;102131.00;5097554;27;20032;-76
2022/05/01 05:48:40;;;;;;;24.95;14.23;;;;;;;8.79;85.64;102127.06;5088552;27;20039;-75
2022/05/01 05:51:06;;;;;;;27.77;15.98;;;;;;;8.80;84.68;102126.94;5071968;27;20035;-75
2022/05/01 05:53:32;;;;;;;28.45;15.55;;;;;;;8.81;84.21;102125.19;5116053;27;20034;-75
2022/05/01 05:55:57;;;;;;;32.00;15.65;;;;;;;8.84;84.16;102125.78;5089299;27;20035;-75
2022/05/01 05:58:23;;;;;;;26.30;15.32;;;;;;;8.92;83.18;102118.28;5085062;28;20081;-74
2022/05/01 06:00:48;;;;;;;28.20;15.90;;;;;;;8.97;83.00;102125.72;5096872;27;20555;-75
2022/05/01 06:03:14;;;;;;;27.38;15.65;;;;;;;9.00;82.29;102125.47;5103964;27;20034;-75
2022/05/01 06:05:39;;;;;;;26.45;15.70;;;;;;;9.09;82.20;102119.59;5085885;27;20028;-75
2022/05/01 06:08:05;;;;;;;25.27;15.75;;;;;;;9.10;82.10;102129.03;5082321;28;20038;-75
2022/05/01 06:10:31;;;;;;;26.92;15.80;;;;;;;9.15;81.39;102120.91;5087840;28;20035;-75
2022/05/01 06:12:56;;;;;;;22.95;14.32;;;;;;;9.17;81.83;102129.38;5083938;28;20058;-75
2022/05/01 06:15:22;;;;;;;24.45;14.25;;;;;;;9.21;81.53;102127.41;5084590;28;20100;-75
2022/05/01 06:17:50;;;;;;;23.77;15.35;;;;;;;9.26;81.80;102133.06;5098698;27;20028;-75
2022/05/01 06:20:15;;;;;;;28.60;15.95;;;;;;;9.33;81.31;102137.66;5105143;28;20036;-75
2022/05/01 06:22:41;;;;;;;25.65;14.40;;;;;;;9.36;80.55;102144.38;5100928;27;20200;-76
2022/05/01 06:25:07;;;;;;;24.27;14.68;;;;;;;9.40;80.55;102140.63;5086742;28;20080;-75
2022/05/01 06:27:32;;;;;;;30.80;15.90;;;;;;;9.46;80.23;102141.94;5104878;27;20027;-74
2022/05/01 06:29:58;;;;;;;27.75;15.02;;;;;;;9.52;79.89;102137.09;5088503;28;20027;-74
2022/05/01 06:32:23;;;;;;;25.00;15.63;;;;;;;9.52;78.91;102141.47;5085995;28;20031;-75
2022/05/01 06:34:51;;;;;;;26.23;15.57;;;;;;;9.55;78.50;102142.06;5106728;28;20045;-75
2022/05/01 06:37:16;;;;;;;28.65;15.77;;;;;;;9.63;77.75;102135.47;5087905;28;20488;-74
2022/05/01 06:39:42;;;;;;;24.15;14.98;;;;;;;9.65;77.64;102133.59;5084274;28;20027;-74
2022/05/01 06:42:09;;;;;;;25.70;14.50;;;;;;;9.71;77.29;102136.53;5102787;28;20495;-74
2022/05/01 06:44:35;;;;;;;27.80;14.70;;;;;;;9.78;77.56;102143.84;5085627;28;20035;-74
2022/05/01 06:47:00;;;;;;;26.15;15.98;;;;;;;9.93;76.84;102134.88;5109537;28;20057;-74
2022/05/01 06:49:26;;;;;;;23.45;15.25;;;;;;;9.93;77.09;102135.69;5086701;28;20039;-74
2022/05/01 06:51:51;;;;;;;30.67;17.45;;;;;;;10.00;76.96;102137.81;5087817;28;20028;-74
2022/05/01 06:54:17;;;;;;;45.83;23.25;;;;;;;10.07;77.06;102137.19;5104180;28;20480;-74
2022/05/01 06:56:44;;;;;;;24.35;16.05;;;;;;;10.13;75.81;102135.91;5097932;28;20384;-74
2022/05/01 06:59:10;;;;;;;27.92;15.60;;;;;;;10.06;75.67;102132.16;5087296;28;20118;-74
2022/05/01 07:01:36;;;;;;;25.08;14.25;;;;;;;10.05;75.44;102133.91;5085528;28;20032;-75
2022/05/01 07:04:01;;;;;;;24.42;14.57;;;;;;;10.17;75.49;102132.16;5092091;28;20089;-74
2022/05/01 07:06:26;;;;;;;24.48;15.10;;;;;;;10.24;74.48;102133.28;5104109;28;20062;-74
2022/05/01 07:08:52;;;;;;;27.98;14.98;;;;;;;10.29;73.06;102138.94;5107548;28;20036;-74
2022/05/01 07:11:17;;;;;;;23.92;14.25;;;;;;;10.27;72.66;102140.00;5104010;28;20085;-74
2022/05/01 07:13:43;;;;;;;27.38;15.95;;;;;;;10.31;73.73;102139.66;5086989;28;20762;-74
2022/05/01 07:16:09;;;;;;;23.33;13.68;;;;;;;10.35;73.40;102134.25;5098294;28;20032;-74
2022/05/01 07:18:34;;;;;;;25.30;14.50;;;;;;;10.32;72.23;102141.31;5100388;28;20159;-74
2022/05/01 07:21:00;;;;;;;22.83;13.63;;;;;;;10.31;72.94;102141.44;5097706;28;20047;-74
2022/05/01 07:23:26;;;;;;;23.70;14.43;;;;;;;10.40;73.14;102135.53;5102132;28;20054;-74
2022/05/01 07:25:51;;;;;;;31.73;15.07;;;;;;;10.55;73.43;102141.25;5085127;28;20506;-74
2022/05/01 07:28:17;;;;;;;24.02;14.10;;;;;;;10.69;73.74;102140.97;5074562;28;20472;-74
2022/05/01 07:30:43;;;;;;;25.67;15.00;;;;;;;10.68;73.63;102134.13;5063659;28;20480;-74
2022/05/01 07:33:08;;;;;;;25.70;14.23;;;;;;;10.78;74.35;102141.19;5116756;27;20029;-74
2022/05/01 07:35:34;;;;;;;25.88;14.75;;;;;;;10.85;73.50;102142.31;5074161;28;20483;-74
2022/05/01 07:38:00;;;;;;;25.38;13.52;;;;;;;10.89;73.34;102141.13;5105637;27;20074;-74
2022/05/01 07:40:26;;;;;;;26.60;14.40;;;;;;;10.87;73.43;102146.44;5094760;27;20411;-74
2022/05/01 07:42:51;;;;;;;26.17;13.80;;;;;;;11.01;72.43;102150.50;5103411;27;20482;-75
2022/05/01 07:45:18;;;;;;;24.27;14.88;;;;;;;11.20;71.12;102142.00;5092742;27;20043;-75
2022/05/01 07:47:43;;;;;;;34.53;15.68;;;;;;;11.29;70.56;102143.84;5092398;28;20055;-74
2022/05/01 07:50:09;;;;;;;24.52;14.20;;;;;;;11.24;71.49;102150.38;5080545;27;20072;-75
2022/05/01 07:52:35;;;;;;;25.67;15.73;;;;;;;11.31;71.50;102143.72;5102394;27;20039;-75
2022/05/01 07:55:03;;;;;;;29.02;14.25;;;;;;;11.30;71.85;102142.06;5082567;28;20197;-75
2022/05/01 07:57:29;;;;;;;28.50;15.27;;;;;;;11.52;71.57;102148.06;5094515;28;20028;-75
2022/05/01 07:59:55;;;;;;;24.05;14.90;;;;;;;11.56;70.59;102147.66;5109148;27;20505;-74
2022/05/01 08:02:20;;;;;;;27.55;15.07;;;;;;;11.45;71.23;102145.16;5103223;27;20032;-74
2022/05/01 08:04:47;;;;;;;26.38;14.73;;;;;;;11.59;71.43;102144.00;5107961;27;20046;-74
2022/05/01 08:07:13;;;;;;;32.05;14.95;;;;;;;11.62;70.43;102141.97;5091628;28;20034;-74
2022/05/01 08:09:38;;;;;;;20.40;12.75;;;;;;;11.71;69.92;102144.72;5086034;27;20190;-74
2022/05/01 08:12:04;;;;;;;19.77;12.65;;;;;;;11.80;69.30;102144.75;5049489;28;20031;-74
2022/05/01 08:14:30;;;;;;;28.92;13.77;;;;;;;11.94;67.99;102145.38;5103068;27;20024;-74
2022/05/01 08:16:55;;;;;;;27.45;14.07;;;;;;;12.08;67.77;102145.03;5065330;27;20518;-74
2022/05/01 08:22:06;;;;;;;23.15;14.00;;;;;;;12.21;67.59;102144.78;5084604;28;20546;-74
2022/05/01 08:24:35;;;;;;;28.13;14.32;;;;;;;12.24;68.15;102144.50;5085604;27;20035;-75
2022/05/01 08:27:05;;;;;;;18.63;12.40;;;;;;;12.56;67.63;102146.03;5090521;28;20444;-74
2022/05/01 08:29:35;;;;;;;18.52;12.50;;;;;;;12.61;66.61;102142.06;5108365;27;20035;-75
2022/05/01 08:32:03;;;;;;;23.25;14.57;;;;;;;12.75;66.44;102140.03;5094173;28;20464;-74
2022/05/01 08:34:28;;;;;;;22.70;12.50;;;;;;;13.07;64.79;102144.09;5092279;27;21014;-74
2022/05/01 08:36:55;;;;;;;21.23;12.73;;;;;;;12.95;64.38;102141.66;5091053;27;20024;-75
2022/05/01 08:39:21;;;;;;;18.02;11.23;;;;;;;12.97;63.53;102139.72;5093137;27;20127;-74
2022/05/01 08:41:47;;;;;;;21.88;11.75;;;;;;;13.10;61.78;102147.25;5093156;27;20076;-75
2022/05/01 08:44:14;;;;;;;20.85;11.43;;;;;;;13.15;62.88;102134.63;5086632;27;20043;-75
2022/05/01 08:47:00;;;;;;;21.02;11.00;;;;;;;13.29;60.99;102130.75;5090965;28;20081;-75
2022/05/01 08:49:28;;;;;;;19.60;11.80;;;;;;;13.28;59.15;102131.75;5088771;28;20070;-75
2022/05/01 08:51:54;;;;;;;23.65;11.38;;;;;;;13.31;60.14;102133.25;5099064;28;20030;-75
2022/05/01 08:54:22;;;;;;;20.95;11.20;;;;;;;13.40;60.18;102129.81;5069558;28;20468;-74
2022/05/01 08:56:48;;;;;;;17.98;10.63;;;;;;;13.49;58.96;102135.97;5078367;28;20035;-75
2022/05/01 08:59:15;;;;;;;16.00;10.35;;;;;;;13.54;59.87;102131.97;5084426;28;20488;-76
2022/05/01 09:01:42;;;;;;;15.23;9.63;;;;;;;13.67;56.88;102134.22;5088337;28;20046;-75
2022/05/01 09:04:12;;;;;;;18.60;10.30;;;;;;;13.77;57.76;102135.00;5089686;28;20065;-75
2022/05/01 09:06:38;;;;;;;18.00;9.40;;;;;;;13.96;56.71;102135.88;5106557;27;20118;-75
2022/05/01 09:09:05;;;;;;;19.17;10.10;;;;;;;13.95;55.11;102136.84;5106985;27;20020;-74
2022/05/01 09:14:14;;;;;;;14.40;8.60;;;;;;;14.18;54.06;102132.88;5107173;27;20042;-75
2022/05/01 09:16:40;;;;;;;18.23;9.02;;;;;;;14.06;53.62;102133.22;5092166;27;20039;-75
2022/05/01 09:19:05;;;;;;;19.13;9.60;;;;;;;14.33;54.06;102129.72;5106054;27;20123;-74
2022/05/01 09:21:48;;;;;;;17.10;9.25;;;;;;;14.50;54.05;102128.91;5092060;28;20500;-75
2022/05/01 09:24:13;;;;;;;19.90;10.63;;;;;;;14.24;54.13;102130.63;5102823;27;23473;-74
2022/05/01 09:26:39;;;;;;;17.70;9.95;;;;;;;14.16;52.00;102133.97;5114338;27;20042;-75
2022/05/01 09:29:05;;;;;;;16.83;9.38;;;;;;;14.16;53.25;102137.38;5107499;27;20023;-75
2022/05/01 09:31:44;;;;;;;18.75;10.38;;;;;;;14.16;50.92;102140.00;5075796;28;20027;-75
2022/05/01 09:34:25;;;;;;;18.27;10.55;;;;;;;14.04;50.52;102135.97;5085201;28;20134;-75
2022/05/01 09:36:51;;;;;;;18.92;8.60;;;;;;;14.28;52.34;102132.78;5098917;27;20043;-74
2022/05/01 09:39:18;;;;;;;13.88;8.60;;;;;;;14.47;49.92;102136.25;5101981;27;20039;-75
2022/05/01 09:41:44;;;;;;;14.57;8.43;;;;;;;14.46;47.25;102124.97;5105034;27;20027;-75
2022/05/01 09:44:14;;;;;;;15.05;7.97;;;;;;;14.61;48.42;102130.50;5088008;27;20497;-75
2022/05/01 09:46:40;;;;;;;16.73;9.02;;;;;;;14.62;47.98;102139.16;5101785;27;20055;-75
2022/05/01 09:49:12;;;;;;;14.55;8.25;;;;;;;14.74;48.17;102138.78;5101728;27;20019;-75
2022/05/01 09:51:59;;;;;;;13.07;8.60;;;;;;;14.76;48.30;102136.00;5089854;28;20046;-75
2022/05/01 09:54:27;;;;;;;17.33;8.73;;;;;;;14.78;47.58;102126.25;5103436;27;20051;-74
2022/05/01 09:56:54;;;;;;;13.80;8.27;;;;;;;14.88;46.94;102129.59;5106776;27;20089;-75
2022/05/01 09:59:22;;;;;;;15.85;8.52;;;;;;;14.96;46.45;102129.66;5081133;28;20039;-75
2022/05/01 10:02:06;;;;;;;13.68;7.93;;;;;;;15.26;44.84;102127.56;5100508;27;20498;-74
2022/05/01 10:04:33;;;;;;;13.75;8.82;;;;;;;15.27;42.59;102123.13;5099020;28;20059;-75
2022/05/01 10:06:59;;;;;;;13.88;8.07;;;;;;;15.37;43.49;102121.25;5091186;27;20035;-75
2022/05/01 10:09:27;;;;;;;15.40;8.90;;;;;;;15.46;43.06;102117.69;5071808;27;20387;-74
2022/05/01 10:11:55;;;;;;;15.55;8.75;;;;;;;15.15;43.10;102127.81;5108806;27;20084;-75
2022/05/01 10:14:21;;;;;;;13.85;8.80;;;;;;;15.06;43.96;102116.47;5070918;28;20037;-75
2022/05/01 10:16:47;;;;;;;16.42;9.90;;;;;;;15.14;43.74;102120.94;5069436;28;20045;-75
2022/05/01 10:19:19;;;;;;;15.60;9.30;;;;;;;15.13;43.83;102117.50;5101094;27;20027;-74
2022/05/01 10:21:49;;;;;;;20.13;11.45;;;;;;;15.14;44.54;102127.00;5086518;28;20399;-75
2022/05/01 10:24:16;;;;;;;18.02;10.32;;;;;;;15.25;42.65;102120.69;5080719;28;20027;-75
2022/05/01 10:26:51;;;;;;;18.83;10.13;;;;;;;15.45;41.85;102104.78;5108359;27;20028;-75
2022/05/01 10:29:35;;;;;;;15.48;8.98;;;;;;;15.61;42.42;102110.06;5107794;27;20509;-75
2022/05/01 10:32:21;;;;;;;16.38;10.23;;;;;;;15.92;41.24;102105.16;5099059;27;20480;-75
2022/05/01 10:35:20;;;;;;;17.02;9.98;;;;;;;15.83;40.94;102105.28;5105978;27;20032;-75
2022/05/01 10:38:14;;;;;;;17.90;11.18;;;;;;;15.27;40.17;102112.69;5100194;27;20054;-75
2022/05/01 10:40:45;;;;;;;17.50;11.20;;;;;;;15.44;40.30;102100.53;5097169;27;20032;-75
2022/05/01 10:43:27;;;;;;;15.88;10.32;;;;;;;15.16;37.51;102098.94;5087945;28;20030;-75
2022/05/01 10:45:54;;;;;;;15.82;9.27;;;;;;;15.25;37.91;102098.97;5101748;28;20027;-75
2022/05/01 10:48:40;;;;;;;16.42;9.95;;;;;;;15.40;41.59;102099.19;5103706;28;20101;-75
2022/05/01 10:51:27;;;;;;;17.33;9.98;;;;;;;15.53;41.78;102096.97;5088381;28;20027;-75
2022/05/01 10:54:13;;;;;;;16.13;9.93;;;;;;;15.77;41.41;102091.84;5095586;27;20032;-74
2022/05/01 10:56:49;;;;;;;13.90;9.05;;;;;;;15.70;42.05;102090.81;5086035;28;20025;-75
2022/05/01 10:59:30;;;;;;;16.13;10.23;;;;;;;15.52;40.98;102088.31;5103957;28;20035;-74
2022/05/01 11:01:57;;;;;;;17.55;9.60;;;;;;;16.08;42.75;102082.59;5082369;28;20507;-74
2022/05/01 11:04:23;;;;;;;14.02;9.30;;;;;;;16.13;43.51;102083.75;5087602;27;20035;-75
2022/05/01 11:06:55;;;;;;;15.65;10.43;;;;;;;16.25;41.38;102081.63;5095930;27;20034;-75
2022/05/01 11:09:22;;;;;;;;;;;;;;;15.97;39.92;102073.25;5105787;27;20028;-74
2022/05/01 11:11:59;;;;;;;15.70;9.88;;;;;;;16.25;39.94;102070.38;5074779;28;20006;-75
2022/05/01 11:14:41;;;;;;;16.52;10.18;;;;;;;16.20;41.43;102072.63;5077521;28;20037;-74
2022/05/01 11:17:08;;;;;;;14.68;10.00;;;;;;;16.21;41.78;102069.88;5087653;28;20036;-75
2022/05/01 11:19:51;;;;;;;16.65;10.63;;;;;;;15.99;41.23;102063.44;5088717;28;20545;-74
2022/05/01 11:22:25;;;;;;;18.67;11.55;;;;;;;15.86;42.02;102060.50;5092464;27;20106;-74
2022/05/01 11:24:50;;;;;;;15.82;11.23;;;;;;;15.95;41.60;102064.75;5105541;27;20019;-75
2022/05/01 11:27:18;;;;;;;16.50;10.98;;;;;;;15.84;40.21;102059.84;5092799;27;20516;-75
2022/05/01 11:30:09;;;;;;;16.63;11.23;;;;;;;15.82;39.67;102059.97;5086443;28;20030;-75
2022/05/01 11:32:50;;;;;;;19.77;11.90;;;;;;;16.00;42.31;102061.69;5106649;27;20201;-75
2022/05/01 11:35:17;;;;;;;16.45;10.68;;;;;;;16.00;41.41;102062.50;5078066;28;20119;-75
2022/05/01 11:38:09;;;;;;;16.35;11.27;;;;;;;16.39;40.20;102058.41;5110446;27;20472;-75
2022/05/01 11:40:35;;;;;;;21.65;12.02;;;;;;;16.38;39.96;102049.75;5094516;27;20123;-75
2022/05/01 11:43:15;;;;;;;16.00;11.57;;;;;;;16.38;39.57;102044.53;5106268;28;20032;-75